sensor_id;sensor_type;location;lat;lon;timestamp;pressure;altitude;pressure_sealevel;temperature;humidity
50854;BME280;44154;45.506;-122.806;2023-02-01T00:02:01;101362.34;;;24.42;27.88
50854;BME280;44154;45.506;-122.806;2023-02-01T00:04:27;101372.44;;;24.30;28.11
50854;BME280;44154;45.506;-122.806;2023-02-01T00:06:54;101373.41;;;24.23;28.17
50854;BME280;44154;45.506;-122.806;2023-02-01T00:09:20;101370.19;;;24.62;27.64
50854;BME280;44154;45.506;-122.806;2023-02-01T00:11:46;101376.50;;;25.20;26.81
50854;BME280;44154;45.506;-122.806;2023-02-01T00:14:12;101355.19;;;25.51;26.42
50854;BME280;44154;45.506;-122.806;2023-02-01T00:16:39;101370.78;;;25.51;26.52
50854;BME280;44154;45.506;-122.806;2023-02-01T00:19:09;101359.59;;;25.23;27.06
50854;BME280;44154;45.506;-122.806;2023-02-01T00:21:35;101362.94;;;24.97;27.29
50854;BME280;44154;45.506;-122.806;2023-02-01T00:24:03;101346.50;;;24.68;27.60
50854;BME280;44154;45.506;-122.806;2023-02-01T00:26:35;101337.94;;;24.52;27.80
50854;BME280;44154;45.506;-122.806;2023-02-01T00:29:03;101343.78;;;24.32;28.00
50854;BME280;44154;45.506;-122.806;2023-02-01T00:31:30;101352.97;;;24.26;28.19
50854;BME280;44154;45.506;-122.806;2023-02-01T00:33:56;101360.00;;;24.10;28.11
50854;BME280;44154;45.506;-122.806;2023-02-01T00:36:22;101377.44;;;24.56;28.09
50854;BME280;44154;45.506;-122.806;2023-02-01T00:38:48;101379.88;;;25.10;27.47
50854;BME280;44154;45.506;-122.806;2023-02-01T00:41:17;101386.06;;;25.47;26.85
50854;BME280;44154;45.506;-122.806;2023-02-01T00:43:44;101384.06;;;25.42;26.81
50854;BME280;44154;45.506;-122.806;2023-02-01T00:46:12;101382.50;;;25.17;26.69
50854;BME280;44154;45.506;-122.806;2023-02-01T00:48:38;101373.28;;;24.94;27.27
50854;BME280;44154;45.506;-122.806;2023-02-01T00:51:11;101350.84;;;24.81;27.88
50854;BME280;44154;45.506;-122.806;2023-02-01T00:53:37;101361.00;;;24.68;28.14
50854;BME280;44154;45.506;-122.806;2023-02-01T00:56:04;101338.03;;;24.46;27.57
50854;BME280;44154;45.506;-122.806;2023-02-01T00:58:31;101324.91;;;24.19;27.16
50854;BME280;44154;45.506;-122.806;2023-02-01T01:03:32;101330.53;;;23.88;28.23
50854;BME280;44154;45.506;-122.806;2023-02-01T01:06:00;101320.25;;;23.72;28.25
50854;BME280;44154;45.506;-122.806;2023-02-01T01:08:27;101313.94;;;23.60;28.41
50854;BME280;44154;45.506;-122.806;2023-02-01T01:10:53;101340.31;;;23.66;28.46
50854;BME280;44154;45.506;-122.806;2023-02-01T01:13:20;101332.69;;;23.56;28.53
50854;BME280;44154;45.506;-122.806;2023-02-01T01:15:46;101331.56;;;23.87;28.13
50854;BME280;44154;45.506;-122.806;2023-02-01T01:18:12;101322.47;;;24.46;27.41
50854;BME280;44154;45.506;-122.806;2023-02-01T01:20:40;101325.47;;;24.85;26.84
50854;BME280;44154;45.506;-122.806;2023-02-01T01:23:07;101316.38;;;24.68;26.83
50854;BME280;44154;45.506;-122.806;2023-02-01T01:25:38;101350.06;;;24.56;26.98
50854;BME280;44154;45.506;-122.806;2023-02-01T01:28:06;101350.69;;;24.35;27.28
50854;BME280;44154;45.506;-122.806;2023-02-01T01:30:34;101341.44;;;24.12;27.62
50854;BME280;44154;45.506;-122.806;2023-02-01T01:33:00;101340.38;;;23.89;27.79
50854;BME280;44154;45.506;-122.806;2023-02-01T01:35:29;101348.28;;;23.79;28.07
50854;BME280;44154;45.506;-122.806;2023-02-01T01:37:56;101337.59;;;23.66;27.79
50854;BME280;44154;45.506;-122.806;2023-02-01T01:40:22;101339.13;;;23.62;27.93
50854;BME280;44154;45.506;-122.806;2023-02-01T01:42:48;101334.38;;;23.69;28.50
50854;BME280;44154;45.506;-122.806;2023-02-01T01:47:58;101318.50;;;24.66;27.52
50854;BME280;44154;45.506;-122.806;2023-02-01T01:50:30;101305.22;;;24.86;27.22
50854;BME280;44154;45.506;-122.806;2023-02-01T01:52:57;101306.94;;;24.75;27.25
50854;BME280;44154;45.506;-122.806;2023-02-01T01:55:26;101305.34;;;24.51;27.43
50854;BME280;44154;45.506;-122.806;2023-02-01T01:57:59;101321.53;;;24.40;27.92
50854;BME280;44154;45.506;-122.806;2023-02-01T02:00:26;101308.63;;;24.12;28.76
50854;BME280;44154;45.506;-122.806;2023-02-01T02:02:57;101333.22;;;24.12;31.13
50854;BME280;44154;45.506;-122.806;2023-02-01T02:05:24;101320.50;;;24.18;32.18
50854;BME280;44154;45.506;-122.806;2023-02-01T02:07:53;101318.28;;;24.67;31.04
50854;BME280;44154;45.506;-122.806;2023-02-01T02:10:22;101322.91;;;25.24;29.74
50854;BME280;44154;45.506;-122.806;2023-02-01T02:13:09;101326.19;;;25.55;29.24
50854;BME280;44154;45.506;-122.806;2023-02-01T02:15:40;101340.31;;;25.47;28.70
50854;BME280;44154;45.506;-122.806;2023-02-01T02:18:34;101352.47;;;25.22;28.60
50854;BME280;44154;45.506;-122.806;2023-02-01T02:24:22;101319.13;;;24.68;29.18
50854;BME280;44154;45.506;-122.806;2023-02-01T02:27:00;101315.34;;;24.45;29.66
50854;BME280;44154;45.506;-122.806;2023-02-01T02:35:24;101337.09;;;24.52;29.87
50854;BME280;44154;45.506;-122.806;2023-02-01T02:38:16;101329.03;;;25.15;29.05
50854;BME280;44154;45.506;-122.806;2023-02-01T02:43:48;101330.34;;;25.12;29.36
50854;BME280;44154;45.506;-122.806;2023-02-01T02:46:40;101331.28;;;24.89;30.11
50854;BME280;44154;45.506;-122.806;2023-02-01T02:52:50;101296.22;;;24.21;30.39
50854;BME280;44154;45.506;-122.806;2023-02-01T02:55:38;101285.47;;;24.03;30.46
50854;BME280;44154;45.506;-122.806;2023-02-01T02:58:07;101313.38;;;24.17;31.05
50854;BME280;44154;45.506;-122.806;2023-02-01T03:00:52;101317.06;;;24.11;30.39
50854;BME280;44154;45.506;-122.806;2023-02-01T03:03:38;101303.66;;;23.97;29.83
50854;BME280;44154;45.506;-122.806;2023-02-01T03:06:24;101303.19;;;23.88;29.85
50854;BME280;44154;45.506;-122.806;2023-02-01T03:08:51;101301.97;;;23.84;29.98
50854;BME280;44154;45.506;-122.806;2023-02-01T03:11:19;101309.78;;;23.81;30.42
50854;BME280;44154;45.506;-122.806;2023-02-01T03:13:55;101301.97;;;23.72;30.41
50854;BME280;44154;45.506;-122.806;2023-02-01T03:19:08;101299.56;;;23.64;29.95
50854;BME280;44154;45.506;-122.806;2023-02-01T03:21:40;101304.19;;;23.64;31.02
50854;BME280;44154;45.506;-122.806;2023-02-01T03:24:20;101284.75;;;23.96;30.37
50854;BME280;44154;45.506;-122.806;2023-02-01T03:26:53;101291.63;;;24.63;29.48
50854;BME280;44154;45.506;-122.806;2023-02-01T03:29:25;101292.94;;;24.89;28.65
50854;BME280;44154;45.506;-122.806;2023-02-01T03:31:54;101290.16;;;24.72;29.09
50854;BME280;44154;45.506;-122.806;2023-02-01T03:34:20;101285.13;;;24.52;29.27
50854;BME280;44154;45.506;-122.806;2023-02-01T03:37:01;101296.91;;;24.29;29.19
50854;BME280;44154;45.506;-122.806;2023-02-01T03:40:03;101293.75;;;24.08;29.25
50854;BME280;44154;45.506;-122.806;2023-02-01T03:42:39;101296.13;;;23.93;29.35
50854;BME280;44154;45.506;-122.806;2023-02-01T03:45:19;101296.84;;;23.76;29.32
50854;BME280;44154;45.506;-122.806;2023-02-01T03:47:52;101272.72;;;23.73;29.98
50854;BME280;44154;45.506;-122.806;2023-02-01T03:50:22;101263.34;;;23.57;29.89
50854;BME280;44154;45.506;-122.806;2023-02-01T03:52:58;101293.63;;;23.55;29.82
50854;BME280;44154;45.506;-122.806;2023-02-01T03:55:27;101289.47;;;23.77;29.80
50854;BME280;44154;45.506;-122.806;2023-02-01T03:57:59;101282.88;;;24.37;29.26
50854;BME280;44154;45.506;-122.806;2023-02-01T04:00:27;101293.13;;;24.82;28.27
50854;BME280;44154;45.506;-122.806;2023-02-01T04:02:54;101306.38;;;24.73;28.21
50854;BME280;44154;45.506;-122.806;2023-02-01T04:05:21;101310.69;;;24.46;28.27
50854;BME280;44154;45.506;-122.806;2023-02-01T04:07:47;101303.03;;;24.19;28.60
50854;BME280;44154;45.506;-122.806;2023-02-01T04:10:13;101309.47;;;24.01;28.78
50854;BME280;44154;45.506;-122.806;2023-02-01T04:12:40;101296.97;;;23.81;29.02
50854;BME280;44154;45.506;-122.806;2023-02-01T04:15:07;101311.47;;;23.70;29.05
50854;BME280;44154;45.506;-122.806;2023-02-01T04:17:33;101308.50;;;23.60;29.57
50854;BME280;44154;45.506;-122.806;2023-02-01T04:19:59;101310.25;;;23.54;29.82
50854;BME280;44154;45.506;-122.806;2023-02-01T04:22:25;101314.78;;;23.60;29.79
50854;BME280;44154;45.506;-122.806;2023-02-01T04:24:51;101313.59;;;24.15;29.14
50854;BME280;44154;45.506;-122.806;2023-02-01T04:27:18;101309.69;;;24.75;28.09
50854;BME280;44154;45.506;-122.806;2023-02-01T04:29:44;101297.34;;;24.90;27.48
50854;BME280;44154;45.506;-122.806;2023-02-01T04:32:10;101306.50;;;24.67;27.70
50854;BME280;44154;45.506;-122.806;2023-02-01T04:34:37;101307.63;;;24.42;28.07
50854;BME280;44154;45.506;-122.806;2023-02-01T04:37:03;101318.00;;;24.16;28.26
50854;BME280;44154;45.506;-122.806;2023-02-01T04:39:29;101303.75;;;23.90;28.57
50854;BME280;44154;45.506;-122.806;2023-02-01T04:41:55;101301.13;;;23.72;28.71
50854;BME280;44154;45.506;-122.806;2023-02-01T04:44:21;101285.78;;;23.59;29.15
50854;BME280;44154;45.506;-122.806;2023-02-01T04:46:47;101288.03;;;23.50;29.41
50854;BME280;44154;45.506;-122.806;2023-02-01T04:49:14;101286.34;;;23.37;29.40
50854;BME280;44154;45.506;-122.806;2023-02-01T04:51:41;101284.56;;;23.43;29.94
50854;BME280;44154;45.506;-122.806;2023-02-01T04:54:08;101288.41;;;23.78;29.26
50854;BME280;44154;45.506;-122.806;2023-02-01T04:56:37;101284.91;;;24.30;28.54
50854;BME280;44154;45.506;-122.806;2023-02-01T04:59:04;101280.94;;;24.49;28.09
50854;BME280;44154;45.506;-122.806;2023-02-01T05:01:30;101296.22;;;24.33;28.12
50854;BME280;44154;45.506;-122.806;2023-02-01T05:03:57;101299.09;;;24.15;28.47
50854;BME280;44154;45.506;-122.806;2023-02-01T05:06:23;101303.75;;;23.90;28.60
50854;BME280;44154;45.506;-122.806;2023-02-01T05:08:49;101290.41;;;23.59;28.92
50854;BME280;44154;45.506;-122.806;2023-02-01T05:11:15;101295.41;;;23.50;29.17
50854;BME280;44154;45.506;-122.806;2023-02-01T05:14:00;101296.94;;;23.34;29.21
50854;BME280;44154;45.506;-122.806;2023-02-01T05:16:26;101299.41;;;23.24;29.31
50854;BME280;44154;45.506;-122.806;2023-02-01T05:18:53;101308.44;;;23.48;29.21
50854;BME280;44154;45.506;-122.806;2023-02-01T05:21:20;101297.56;;;23.95;28.65
50854;BME280;44154;45.506;-122.806;2023-02-01T05:23:46;101292.41;;;24.34;27.93
50854;BME280;44154;45.506;-122.806;2023-02-01T05:26:31;101282.50;;;24.45;27.73
50854;BME280;44154;45.506;-122.806;2023-02-01T05:28:57;101271.47;;;24.28;27.85
50854;BME280;44154;45.506;-122.806;2023-02-01T05:31:23;101285.78;;;24.06;28.01
50854;BME280;44154;45.506;-122.806;2023-02-01T05:33:49;101278.41;;;23.83;28.29
50854;BME280;44154;45.506;-122.806;2023-02-01T05:36:16;101251.06;;;23.36;28.69
50854;BME280;44154;45.506;-122.806;2023-02-01T05:38:42;101299.44;;;23.47;28.75
50854;BME280;44154;45.506;-122.806;2023-02-01T05:41:08;101290.03;;;23.31;29.00
50854;BME280;44154;45.506;-122.806;2023-02-01T05:43:35;101266.59;;;23.12;29.12
50854;BME280;44154;45.506;-122.806;2023-02-01T05:46:01;101282.19;;;23.35;29.13
50854;BME280;44154;45.506;-122.806;2023-02-01T05:48:27;101285.31;;;23.74;28.55
50854;BME280;44154;45.506;-122.806;2023-02-01T05:50:53;101289.84;;;24.16;27.90
50854;BME280;44154;45.506;-122.806;2023-02-01T05:53:19;101282.09;;;24.24;27.84
50854;BME280;44154;45.506;-122.806;2023-02-01T05:55:46;101292.09;;;24.19;27.65
50854;BME280;44154;45.506;-122.806;2023-02-01T05:58:12;101291.50;;;24.05;27.85
50854;BME280;44154;45.506;-122.806;2023-02-01T06:00:39;101287.84;;;23.87;28.19
50854;BME280;44154;45.506;-122.806;2023-02-01T06:03:05;101290.75;;;23.62;28.51
50854;BME280;44154;45.506;-122.806;2023-02-01T06:05:32;101295.75;;;23.53;28.65
50854;BME280;44154;45.506;-122.806;2023-02-01T06:07:58;101294.53;;;23.37;28.82
50854;BME280;44154;45.506;-122.806;2023-02-01T06:10:24;101290.34;;;23.23;29.03
50854;BME280;44154;45.506;-122.806;2023-02-01T06:12:50;101288.84;;;23.39;28.98
50854;BME280;44154;45.506;-122.806;2023-02-01T06:15:16;101275.22;;;23.75;28.67
50854;BME280;44154;45.506;-122.806;2023-02-01T06:17:44;101263.22;;;23.99;28.17
50854;BME280;44154;45.506;-122.806;2023-02-01T06:20:12;101275.03;;;24.29;27.86
50854;BME280;44154;45.506;-122.806;2023-02-01T06:22:39;101284.59;;;24.14;27.82
50854;BME280;44154;45.506;-122.806;2023-02-01T06:25:07;101271.28;;;23.82;27.99
50854;BME280;44154;45.506;-122.806;2023-02-01T06:27:34;101297.41;;;23.78;28.15
50854;BME280;44154;45.506;-122.806;2023-02-01T06:30:02;101297.91;;;23.63;28.42
50854;BME280;44154;45.506;-122.806;2023-02-01T06:32:28;101299.19;;;23.49;28.45
50854;BME280;44154;45.506;-122.806;2023-02-01T06:34:54;101308.91;;;23.33;28.67
50854;BME280;44154;45.506;-122.806;2023-02-01T06:37:22;101314.84;;;23.30;28.87
50854;BME280;44154;45.506;-122.806;2023-02-01T06:39:48;101317.38;;;23.55;28.62
50854;BME280;44154;45.506;-122.806;2023-02-01T06:42:15;101312.91;;;23.96;28.08
50854;BME280;44154;45.506;-122.806;2023-02-01T06:44:41;101306.94;;;24.23;27.64
50854;BME280;44154;45.506;-122.806;2023-02-01T06:47:07;101311.09;;;24.25;27.45
50854;BME280;44154;45.506;-122.806;2023-02-01T06:49:33;101311.47;;;24.05;27.67
50854;BME280;44154;45.506;-122.806;2023-02-01T06:51:59;101301.25;;;23.77;27.77
50854;BME280;44154;45.506;-122.806;2023-02-01T06:54:26;101305.53;;;23.73;28.05
50854;BME280;44154;45.506;-122.806;2023-02-01T06:56:53;101311.81;;;23.62;28.21
50854;BME280;44154;45.506;-122.806;2023-02-01T06:59:19;101319.13;;;23.49;28.30
50854;BME280;44154;45.506;-122.806;2023-02-01T07:01:45;101316.78;;;23.41;28.38
50854;BME280;44154;45.506;-122.806;2023-02-01T07:04:12;101317.56;;;23.30;28.55
50854;BME280;44154;45.506;-122.806;2023-02-01T07:06:38;101309.13;;;23.19;28.63
50854;BME280;44154;45.506;-122.806;2023-02-01T07:09:05;101311.56;;;23.09;28.95
50854;BME280;44154;45.506;-122.806;2023-02-01T07:11:31;101307.47;;;23.00;29.00
50854;BME280;44154;45.506;-122.806;2023-02-01T07:13:58;101281.16;;;22.75;28.88
50854;BME280;44154;45.506;-122.806;2023-02-01T07:16:25;101309.19;;;22.82;29.15
50854;BME280;44154;45.506;-122.806;2023-02-01T07:18:52;101309.16;;;22.71;29.11
50854;BME280;44154;45.506;-122.806;2023-02-01T07:21:19;101306.47;;;22.82;29.40
50854;BME280;44154;45.506;-122.806;2023-02-01T07:23:45;101309.16;;;23.01;29.21
50854;BME280;44154;45.506;-122.806;2023-02-01T07:26:13;101315.91;;;23.29;28.87
50854;BME280;44154;45.506;-122.806;2023-02-01T07:28:40;101312.22;;;23.35;28.68
50854;BME280;44154;45.506;-122.806;2023-02-01T07:31:09;101311.16;;;23.24;28.71
50854;BME280;44154;45.506;-122.806;2023-02-01T07:33:36;101309.44;;;23.11;28.55
50854;BME280;44154;45.506;-122.806;2023-02-01T07:36:04;101313.41;;;22.97;29.13
50854;BME280;44154;45.506;-122.806;2023-02-01T07:38:31;101310.72;;;22.78;29.59
50854;BME280;44154;45.506;-122.806;2023-02-01T07:40:58;101312.69;;;22.71;29.62
50854;BME280;44154;45.506;-122.806;2023-02-01T07:43:25;101304.91;;;22.75;29.66
50854;BME280;44154;45.506;-122.806;2023-02-01T07:45:53;101301.75;;;22.90;29.62
50854;BME280;44154;45.506;-122.806;2023-02-01T07:48:21;101286.38;;;23.07;29.45
50854;BME280;44154;45.506;-122.806;2023-02-01T07:50:47;101313.69;;;23.49;28.63
50854;BME280;44154;45.506;-122.806;2023-02-01T07:53:14;101304.19;;;23.64;28.46
50854;BME280;44154;45.506;-122.806;2023-02-01T07:55:41;101295.03;;;23.58;28.26
50854;BME280;44154;45.506;-122.806;2023-02-01T07:58:07;101288.25;;;23.37;28.47
50854;BME280;44154;45.506;-122.806;2023-02-01T08:00:33;101291.78;;;23.26;28.65
50854;BME280;44154;45.506;-122.806;2023-02-01T08:03:31;101305.47;;;23.07;28.78
50854;BME280;44154;45.506;-122.806;2023-02-01T08:05:57;101290.34;;;22.93;28.89
50854;BME280;44154;45.506;-122.806;2023-02-01T08:08:23;101293.41;;;22.84;29.02
50854;BME280;44154;45.506;-122.806;2023-02-01T08:10:50;101291.59;;;22.78;29.43
50854;BME280;44154;45.506;-122.806;2023-02-01T08:13:16;101282.63;;;22.90;30.05
50854;BME280;44154;45.506;-122.806;2023-02-01T08:15:42;101284.06;;;23.11;29.93
50854;BME280;44154;45.506;-122.806;2023-02-01T08:18:08;101285.50;;;23.25;29.58
50854;BME280;44154;45.506;-122.806;2023-02-01T08:20:36;101283.13;;;23.29;29.37
50854;BME280;44154;45.506;-122.806;2023-02-01T08:23:07;101285.22;;;23.15;29.38
50854;BME280;44154;45.506;-122.806;2023-02-01T08:25:34;101283.38;;;22.97;29.50
50854;BME280;44154;45.506;-122.806;2023-02-01T08:28:02;101284.88;;;22.81;31.00
50854;BME280;44154;45.506;-122.806;2023-02-01T08:30:29;101290.09;;;22.82;31.02
50854;BME280;44154;45.506;-122.806;2023-02-01T08:32:55;101287.31;;;22.71;32.16
50854;BME280;44154;45.506;-122.806;2023-02-01T08:35:21;101287.78;;;22.67;31.61
50854;BME280;44154;45.506;-122.806;2023-02-01T08:37:48;101273.72;;;22.82;32.70
50854;BME280;44154;45.506;-122.806;2023-02-01T08:40:15;101276.84;;;23.28;31.56
50854;BME280;44154;45.506;-122.806;2023-02-01T08:42:41;101269.28;;;23.66;30.94
50854;BME280;44154;45.506;-122.806;2023-02-01T08:45:27;101281.41;;;23.70;30.27
50854;BME280;44154;45.506;-122.806;2023-02-01T08:47:56;101257.50;;;23.42;30.12
50854;BME280;44154;45.506;-122.806;2023-02-01T08:50:23;101265.22;;;23.33;30.28
50854;BME280;44154;45.506;-122.806;2023-02-01T08:52:50;101260.88;;;23.13;29.86
50854;BME280;44154;45.506;-122.806;2023-02-01T08:55:16;101279.09;;;23.19;29.56
50854;BME280;44154;45.506;-122.806;2023-02-01T08:57:43;101277.13;;;23.08;30.12
50854;BME280;44154;45.506;-122.806;2023-02-01T09:00:12;101272.94;;;22.94;30.54
50854;BME280;44154;45.506;-122.806;2023-02-01T09:02:39;101273.75;;;22.94;31.61
50854;BME280;44154;45.506;-122.806;2023-02-01T09:05:05;101258.38;;;23.12;31.35
50854;BME280;44154;45.506;-122.806;2023-02-01T09:07:33;101277.47;;;23.54;30.14
50854;BME280;44154;45.506;-122.806;2023-02-01T09:10:00;101268.06;;;23.85;29.19
50854;BME280;44154;45.506;-122.806;2023-02-01T09:12:31;101269.03;;;23.79;28.96
50854;BME280;44154;45.506;-122.806;2023-02-01T09:14:58;101281.63;;;23.56;29.12
50854;BME280;44154;45.506;-122.806;2023-02-01T09:17:29;101252.97;;;23.24;29.24
50854;BME280;44154;45.506;-122.806;2023-02-01T09:19:55;101271.94;;;23.18;29.18
50854;BME280;44154;45.506;-122.806;2023-02-01T09:22:21;101274.47;;;23.01;29.21
50854;BME280;44154;45.506;-122.806;2023-02-01T09:24:48;101266.72;;;22.86;29.26
50854;BME280;44154;45.506;-122.806;2023-02-01T09:27:14;101290.09;;;22.82;29.25
50854;BME280;44154;45.506;-122.806;2023-02-01T09:29:40;101294.44;;;23.02;30.85
50854;BME280;44154;45.506;-122.806;2023-02-01T09:32:06;101285.63;;;23.42;31.72
50854;BME280;44154;45.506;-122.806;2023-02-01T09:34:33;101284.38;;;24.04;30.08
50854;BME280;44154;45.506;-122.806;2023-02-01T09:37:00;101285.16;;;24.28;29.40
50854;BME280;44154;45.506;-122.806;2023-02-01T09:39:26;101271.88;;;24.08;28.21
50854;BME280;44154;45.506;-122.806;2023-02-01T09:41:57;101270.47;;;23.82;28.51
50854;BME280;44154;45.506;-122.806;2023-02-01T09:47:18;101270.91;;;23.31;29.42
50854;BME280;44154;45.506;-122.806;2023-02-01T09:50:03;101267.06;;;23.20;29.80
50854;BME280;44154;45.506;-122.806;2023-02-01T09:52:43;101284.06;;;23.11;29.82
50854;BME280;44154;45.506;-122.806;2023-02-01T09:55:18;101278.06;;;23.02;29.86
50854;BME280;44154;45.506;-122.806;2023-02-01T09:57:49;101288.00;;;22.96;30.02
50854;BME280;44154;45.506;-122.806;2023-02-01T10:00:30;101287.19;;;23.38;30.53
50854;BME280;44154;45.506;-122.806;2023-02-01T10:02:59;101282.25;;;24.06;29.76
50854;BME280;44154;45.506;-122.806;2023-02-01T10:08:25;101280.22;;;24.13;29.09
50854;BME280;44154;45.506;-122.806;2023-02-01T10:11:13;101275.94;;;23.82;29.66
50854;BME280;44154;45.506;-122.806;2023-02-01T10:19:19;101281.09;;;23.12;30.31
50854;BME280;44154;45.506;-122.806;2023-02-01T10:24:41;101284.66;;;22.94;30.59
50854;BME280;44154;45.506;-122.806;2023-02-01T10:27:21;101284.09;;;23.04;30.62
50854;BME280;44154;45.506;-122.806;2023-02-01T10:29:53;101291.63;;;23.63;29.86
50854;BME280;44154;45.506;-122.806;2023-02-01T10:32:21;101278.66;;;24.17;29.30
50854;BME280;44154;45.506;-122.806;2023-02-01T10:34:55;101285.78;;;24.30;29.52
50854;BME280;44154;45.506;-122.806;2023-02-01T10:37:24;101275.34;;;24.03;28.73
50854;BME280;44154;45.506;-122.806;2023-02-01T10:39:54;101269.50;;;23.76;28.81
50854;BME280;44154;45.506;-122.806;2023-02-01T10:42:26;101287.22;;;23.50;29.88
50854;BME280;44154;45.506;-122.806;2023-02-01T10:44:56;101285.75;;;23.24;30.16
50854;BME280;44154;45.506;-122.806;2023-02-01T10:47:23;101289.09;;;23.07;30.19
50854;BME280;44154;45.506;-122.806;2023-02-01T10:54:53;101267.06;;;23.20;30.60
50854;BME280;44154;45.506;-122.806;2023-02-01T10:57:24;101295.16;;;23.63;30.09
50854;BME280;44154;45.506;-122.806;2023-02-01T10:59:52;101289.47;;;23.77;30.68
50854;BME280;44154;45.506;-122.806;2023-02-01T11:04:47;101273.97;;;23.35;30.17
50854;BME280;44154;45.506;-122.806;2023-02-01T11:07:33;101300.81;;;23.26;30.03
50854;BME280;44154;45.506;-122.806;2023-02-01T11:10:00;101302.06;;;23.12;30.10
50854;BME280;44154;45.506;-122.806;2023-02-01T11:12:35;101308.53;;;22.99;30.16
50854;BME280;44154;45.506;-122.806;2023-02-01T11:17:47;101300.25;;;23.06;30.80
50854;BME280;44154;45.506;-122.806;2023-02-01T11:20:32;101300.28;;;23.60;29.32
50854;BME280;44154;45.506;-122.806;2023-02-01T11:23:01;101283.78;;;24.02;28.80
50854;BME280;44154;45.506;-122.806;2023-02-01T11:25:28;101257.63;;;23.82;30.14
50854;BME280;44154;45.506;-122.806;2023-02-01T11:27:55;101270.47;;;23.70;30.21
50854;BME280;44154;45.506;-122.806;2023-02-01T11:30:36;101269.72;;;23.39;30.54
50854;BME280;44154;45.506;-122.806;2023-02-01T11:33:13;101277.41;;;23.18;30.53
50854;BME280;44154;45.506;-122.806;2023-02-01T11:35:41;101273.91;;;22.99;30.59
50854;BME280;44154;45.506;-122.806;2023-02-01T11:38:47;101285.44;;;22.83;30.99
50854;BME280;44154;45.506;-122.806;2023-02-01T11:41:13;101287.53;;;22.99;30.73
50854;BME280;44154;45.506;-122.806;2023-02-01T11:44:00;101288.13;;;23.32;30.20
50854;BME280;44154;45.506;-122.806;2023-02-01T11:46:32;101299.19;;;23.61;29.48
50854;BME280;44154;45.506;-122.806;2023-02-01T11:49:23;101303.84;;;23.60;29.93
50854;BME280;44154;45.506;-122.806;2023-02-01T11:52:29;101295.16;;;23.40;30.15
50854;BME280;44154;45.506;-122.806;2023-02-01T12:00:49;101297.00;;;22.85;30.74
50854;BME280;44154;45.506;-122.806;2023-02-01T12:03:51;101290.25;;;22.88;30.46
50854;BME280;44154;45.506;-122.806;2023-02-01T12:06:37;101282.72;;;23.13;29.80
50854;BME280;44154;45.506;-122.806;2023-02-01T12:12:23;101288.16;;;23.55;29.41
50854;BME280;44154;45.506;-122.806;2023-02-01T12:20:57;101284.56;;;23.01;30.05
50854;BME280;44154;45.506;-122.806;2023-02-01T12:26:22;101282.38;;;22.79;30.24
50854;BME280;44154;45.506;-122.806;2023-02-01T12:47:28;101259.56;;;22.74;30.09
50854;BME280;44154;45.506;-122.806;2023-02-01T12:50:45;101267.31;;;22.89;29.87
50854;BME280;44154;45.506;-122.806;2023-02-01T12:53:42;101264.34;;;23.20;29.33
50854;BME280;44154;45.506;-122.806;2023-02-01T12:56:14;101249.53;;;23.40;28.80
50854;BME280;44154;45.506;-122.806;2023-02-01T12:58:48;101273.78;;;23.48;28.98
50854;BME280;44154;45.506;-122.806;2023-02-01T13:04:08;101272.28;;;23.22;29.30
50854;BME280;44154;45.506;-122.806;2023-02-01T13:07:03;101279.69;;;23.03;29.54
50854;BME280;44154;45.506;-122.806;2023-02-01T13:09:40;101274.31;;;22.84;29.72
50854;BME280;44154;45.506;-122.806;2023-02-01T13:12:25;101281.88;;;22.71;29.89
50854;BME280;44154;45.506;-122.806;2023-02-01T13:14:58;101273.88;;;22.88;29.56
50854;BME280;44154;45.506;-122.806;2023-02-01T13:17:32;101268.50;;;23.11;29.25
50854;BME280;44154;45.506;-122.806;2023-02-01T13:22:50;101257.88;;;23.57;28.69
50854;BME280;44154;45.506;-122.806;2023-02-01T13:25:32;101260.59;;;23.45;28.81
50854;BME280;44154;45.506;-122.806;2023-02-01T13:28:10;101261.75;;;23.26;28.99
50854;BME280;44154;45.506;-122.806;2023-02-01T13:31:17;101250.41;;;23.10;29.18
50854;BME280;44154;45.506;-122.806;2023-02-01T13:42:25;101244.31;;;23.98;27.98
50854;BME280;44154;45.506;-122.806;2023-02-01T13:45:04;101251.34;;;23.94;28.09
50854;BME280;44154;45.506;-122.806;2023-02-01T13:47:40;101248.94;;;23.73;28.31
50854;BME280;44154;45.506;-122.806;2023-02-01T13:50:36;101259.03;;;23.49;28.60
50854;BME280;44154;45.506;-122.806;2023-02-01T13:53:16;101262.09;;;23.29;28.94
50854;BME280;44154;45.506;-122.806;2023-02-01T13:56:02;101261.59;;;23.20;28.91
50854;BME280;44154;45.506;-122.806;2023-02-01T13:58:34;101275.19;;;23.39;28.70
50854;BME280;44154;45.506;-122.806;2023-02-01T14:04:03;101266.06;;;23.93;27.96
50854;BME280;44154;45.506;-122.806;2023-02-01T14:11:38;101263.09;;;23.59;28.51
50854;BME280;44154;45.506;-122.806;2023-02-01T14:19:28;101248.91;;;23.26;28.76
50854;BME280;44154;45.506;-122.806;2023-02-01T14:22:00;101205.84;;;23.16;28.46
50854;BME280;44154;45.506;-122.806;2023-02-01T14:24:29;101257.84;;;23.81;28.05
50854;BME280;44154;45.506;-122.806;2023-02-01T14:29:44;101265.13;;;23.99;27.92
50854;BME280;44154;45.506;-122.806;2023-02-01T14:32:22;101270.22;;;23.83;28.07
50854;BME280;44154;45.506;-122.806;2023-02-01T14:34:53;101278.53;;;23.65;28.17